Time;durP1;ratioP1;P1;durP2;ratioP2;P2;SDS_P1;SDS_P2;PMS_P1;PMS_P2;Temp;Humidity;BMP_temperature;BMP_pressure;BME280_temperature;BME280_humidity;BME280_pressure;Samples;Min_cycle;Max_cycle;Signal;HPM_P1;HPM_P2
2022/11/02 00:01:53;;;;;;;6.00;2.72;;;12.00;99.90;;;;;;5033048;28;20033;-56
2022/11/02 00:04:39;;;;;;;7.15;2.72;;;12.00;99.90;;;;;;5013208;28;20034;-57
2022/11/02 00:07:25;;;;;;;8.02;3.00;;;12.00;99.90;;;;;;5030656;28;20093;-55
2022/11/02 00:10:10;;;;;;;10.70;3.25;;;12.00;99.90;;;;;;5032110;28;20095;-56
2022/11/02 00:12:57;;;;;;;8.57;3.42;;;12.10;99.90;;;;;;5032006;28;20038;-59
2022/11/02 00:15:43;;;;;;;9.32;3.25;;;12.10;99.90;;;;;;5033740;28;20029;-55
2022/11/02 00:18:29;;;;;;;6.40;2.95;;;12.00;99.90;;;;;;5032499;28;20530;-55
2022/11/02 00:21:17;;;;;;;8.48;3.80;;;12.00;99.90;;;;;;5032680;28;20069;-57
2022/11/02 00:24:05;;;;;;;5.97;3.25;;;11.90;99.90;;;;;;5032768;28;20029;-56
2022/11/02 00:26:52;;;;;;;10.20;3.30;;;12.00;99.90;;;;;;5030926;28;20021;-54
2022/11/02 00:29:38;;;;;;;7.43;3.00;;;12.00;99.90;;;;;;5018368;28;20083;-55
2022/11/02 00:32:25;;;;;;;6.95;3.28;;;11.90;99.90;;;;;;5032430;28;20029;-57
2022/11/02 00:35:11;;;;;;;7.57;3.05;;;11.80;99.90;;;;;;5022099;28;20028;-58
2022/11/02 00:37:57;;;;;;;9.38;3.25;;;11.90;99.90;;;;;;5032741;28;20468;-57
2022/11/02 00:40:43;;;;;;;9.38;3.40;;;11.90;99.90;;;;;;5027146;28;20104;-53
2022/11/02 00:43:29;;;;;;;8.02;3.20;;;11.90;99.90;;;;;;5032059;28;20034;-54
2022/11/02 00:46:15;;;;;;;5.75;2.72;;;11.80;99.90;;;;;;5031938;28;20026;-57
2022/11/02 00:49:01;;;;;;;7.85;3.10;;;11.80;99.90;;;;;;5016804;28;20073;-56
2022/11/02 00:51:47;;;;;;;7.93;3.00;;;11.80;99.90;;;;;;5032154;28;20120;-56
2022/11/02 00:54:33;;;;;;;8.88;3.92;;;11.70;99.90;;;;;;5031232;28;20025;-56
2022/11/02 00:57:19;;;;;;;8.07;3.28;;;11.70;99.90;;;;;;5031239;28;20112;-57
2022/11/02 01:00:07;;;;;;;11.07;3.30;;;11.70;99.90;;;;;;5031742;28;20060;-57
2022/11/02 01:02:53;;;;;;;8.38;3.97;;;11.70;99.90;;;;;;5013431;28;20100;-53
2022/11/02 01:05:39;;;;;;;8.73;3.75;;;11.80;99.90;;;;;;5012347;28;20038;-57
2022/11/02 01:08:25;;;;;;;10.82;3.72;;;11.70;99.90;;;;;;5027387;28;20033;-57
2022/11/02 01:11:16;;;;;;;8.52;3.20;;;11.70;99.90;;;;;;5031454;28;20103;-53
2022/11/02 01:14:03;;;;;;;7.97;3.03;;;11.70;99.90;;;;;;5030807;28;20068;-56
2022/11/02 01:16:49;;;;;;;6.00;3.42;;;11.60;99.90;;;;;;5030589;28;20029;-55
2022/11/02 01:19:35;;;;;;;5.50;2.90;;;11.50;99.90;;;;;;5031620;28;20026;-52
2022/11/02 01:22:21;;;;;;;10.70;3.88;;;11.50;99.90;;;;;;5031441;28;20017;-53
2022/11/02 01:25:08;;;;;;;8.18;3.03;;;11.50;99.90;;;;;;5033252;28;20474;-59
2022/11/02 01:27:53;;;;;;;6.82;3.38;;;11.60;99.90;;;;;;5021196;28;20061;-58
2022/11/02 01:30:40;;;;;;;10.50;3.35;;;11.60;99.90;;;;;;5035360;28;20026;-56
2022/11/02 01:33:26;;;;;;;7.50;3.92;;;11.60;99.90;;;;;;5012219;28;20070;-55
2022/11/02 01:36:15;;;;;;;8.48;3.28;;;11.60;99.90;;;;;;5031585;28;20021;-55
2022/11/02 01:39:01;;;;;;;7.32;3.25;;;11.50;99.90;;;;;;5030984;28;20438;-52
2022/11/02 01:41:54;;;;;;;5.93;2.63;;;11.50;99.90;;;;;;5016930;28;20024;-55
2022/11/02 01:44:40;;;;;;;10.30;3.65;;;11.50;99.90;;;;;;5031311;28;20025;-57
2022/11/02 01:47:34;;;;;;;10.02;3.53;;;11.50;99.90;;;;;;5030149;28;20026;-54
2022/11/02 01:50:25;;;;;;;12.60;3.55;;;11.50;99.90;;;;;;5030974;28;20037;-55
2022/11/02 01:53:11;;;;;;;8.75;3.65;;;11.50;99.90;;;;;;5030717;28;20061;-57
2022/11/02 01:55:58;;;;;;;8.70;3.47;;;11.60;99.90;;;;;;5030099;28;20057;-56
2022/11/02 01:58:47;;;;;;;10.43;3.95;;;11.60;99.90;;;;;;5003076;28;20038;-55
2022/11/02 02:01:33;;;;;;;8.07;3.10;;;11.60;99.90;;;;;;5014968;28;20041;-55
2022/11/02 02:04:21;;;;;;;9.10;3.22;;;11.70;99.90;;;;;;5030486;28;20038;-57
2022/11/02 02:07:07;;;;;;;6.82;3.28;;;11.80;99.90;;;;;;5030728;28;20111;-58
2022/11/02 02:09:54;;;;;;;10.18;3.20;;;11.80;99.90;;;;;;5030670;28;20120;-55
2022/11/02 02:12:41;;;;;;;8.85;3.10;;;11.80;99.90;;;;;;5030752;28;20443;-56
2022/11/02 02:15:52;;;;;;;7.25;2.92;;;11.90;99.90;;;;;;5031064;28;20444;-54
2022/11/02 02:18:55;;;;;;;11.55;3.65;;;11.90;99.90;;;;;;5030411;28;20033;-56
2022/11/02 02:22:03;;;;;;;12.07;3.53;;;12.00;99.90;;;;;;5029797;28;20029;-56
2022/11/02 02:25:17;;;;;;;12.30;3.80;;;12.00;99.90;;;;;;5010068;28;20026;-57
2022/11/02 02:28:15;;;;;;;8.63;3.67;;;11.90;99.90;;;;;;5019533;28;20032;-57
2022/11/02 02:31:26;;;;;;;8.80;3.47;;;12.00;99.90;;;;;;5030306;28;20017;-55
2022/11/02 02:34:18;;;;;;;7.82;3.45;;;12.00;99.90;;;;;;5030469;28;20082;-55
2022/11/02 02:37:08;;;;;;;15.95;3.83;;;12.00;99.90;;;;;;5017049;28;20161;-58
2022/11/02 02:40:06;;;;;;;16.40;3.83;;;12.00;99.90;;;;;;5025081;28;20030;-57
2022/11/02 02:42:57;;;;;;;8.57;3.42;;;11.90;99.90;;;;;;5044044;28;20021;-55
2022/11/02 02:45:51;;;;;;;7.82;3.35;;;11.90;99.90;;;;;;5048651;28;20087;-54
2022/11/02 02:48:40;;;;;;;9.85;3.65;;;11.80;99.90;;;;;;5032734;28;20061;-52
2022/11/02 02:51:31;;;;;;;11.80;3.83;;;11.90;99.90;;;;;;5030891;28;20028;-54
2022/11/02 02:54:25;;;;;;;12.88;5.45;;;11.80;99.90;;;;;;5011097;28;20026;-53
2022/11/02 02:57:15;;;;;;;40.85;21.92;;;11.80;99.90;;;;;;5014755;28;20052;-55
2022/11/02 03:00:02;;;;;;;30.83;16.95;;;11.80;99.90;;;;;;5031260;28;20082;-54
2022/11/02 03:03:01;;;;;;;30.00;15.73;;;11.80;99.90;;;;;;5030252;28;20021;-54
2022/11/02 03:06:18;;;;;;;37.13;16.77;;;11.80;99.90;;;;;;5029928;28;20409;-55
2022/11/02 03:09:11;;;;;;;26.02;13.75;;;11.80;99.90;;;;;;5009948;28;20510;-53
2022/11/02 03:12:21;;;;;;;17.52;9.98;;;11.80;99.90;;;;;;5018322;28;20036;-55
2022/11/02 03:15:21;;;;;;;16.48;6.93;;;11.80;99.90;;;;;;5030361;28;20021;-52
2022/11/02 03:18:45;;;;;;;12.75;6.35;;;11.70;99.90;;;;;;5029462;28;20458;-54
2022/11/02 03:21:40;;;;;;;10.70;4.80;;;11.70;99.90;;;;;;5028725;28;20041;-53
2022/11/02 03:24:42;;;;;;;16.73;4.88;;;11.60;99.90;;;;;;5029912;28;20018;-53
2022/11/02 03:27:45;;;;;;;16.00;4.40;;;11.60;99.90;;;;;;5029956;28;20083;-51
2022/11/02 03:30:38;;;;;;;17.08;5.75;;;11.50;99.90;;;;;;5028316;28;20407;-55
2022/11/02 03:33:32;;;;;;;22.45;11.55;;;11.50;99.90;;;;;;5029295;28;20029;-53
2022/11/02 03:36:23;;;;;;;9.68;5.80;;;11.50;99.90;;;;;;5029724;28;20094;-55
2022/11/02 03:39:12;;;;;;;8.32;3.72;;;11.40;99.90;;;;;;5030572;28;20485;-54
2022/11/02 03:42:01;;;;;;;12.00;3.95;;;11.50;99.90;;;;;;5030068;28;20025;-55
2022/11/02 03:44:52;;;;;;;8.20;3.10;;;11.40;99.90;;;;;;5028902;28;20105;-52
2022/11/02 03:47:40;;;;;;;12.82;3.95;;;11.40;99.90;;;;;;5028387;28;20112;-56
2022/11/02 03:50:26;;;;;;;9.02;3.08;;;11.40;99.90;;;;;;5029404;28;20092;-57
2022/11/02 03:53:19;;;;;;;11.50;3.97;;;11.40;99.90;;;;;;5029068;28;20117;-57
2022/11/02 03:56:12;;;;;;;8.90;3.42;;;11.30;99.90;;;;;;5028982;28;20026;-56
2022/11/02 03:58:58;;;;;;;7.32;4.13;;;11.20;99.90;;;;;;5009953;28;20034;-55
2022/11/02 04:01:47;;;;;;;10.10;3.53;;;11.10;99.90;;;;;;5012427;28;20017;-56
2022/11/02 04:04:33;;;;;;;9.73;3.38;;;11.10;99.90;;;;;;5030582;28;20061;-57
2022/11/02 04:07:26;;;;;;;9.93;3.60;;;11.10;99.90;;;;;;5029483;28;20081;-57
2022/11/02 04:10:12;;;;;;;10.20;3.65;;;11.00;99.90;;;;;;5002920;28;20405;-58
2022/11/02 04:16:02;;;;;;;14.52;4.00;;;11.10;99.90;;;;;;5029290;28;20400;-52
2022/11/02 04:28:07;;;;;;;9.73;3.75;;;11.00;99.90;;;;;;5032234;28;20124;-49
2022/11/02 04:30:53;;;;;;;8.13;3.72;;;11.00;99.90;;;;;;5032919;28;20033;-51
2022/11/02 04:33:40;;;;;;;9.43;3.95;;;10.90;99.90;;;;;;5032032;28;20033;-53
2022/11/02 04:36:29;;;;;;;7.38;3.58;;;11.00;99.90;;;;;;5031224;28;20037;-52
2022/11/02 04:39:15;;;;;;;11.13;3.50;;;11.00;99.90;;;;;;5032535;28;20061;-49
2022/11/02 04:42:01;;;;;;;11.05;4.38;;;10.90;99.90;;;;;;5032012;28;20029;-49
2022/11/02 04:44:47;;;;;;;9.80;3.53;;;11.00;99.90;;;;;;5031712;28;20075;-53
2022/11/02 04:47:35;;;;;;;11.73;4.10;;;11.00;99.90;;;;;;5031521;28;20056;-57
2022/11/02 04:50:21;;;;;;;13.93;3.90;;;11.00;99.90;;;;;;5016657;28;20034;-58
2022/11/02 04:53:08;;;;;;;7.25;3.55;;;11.00;99.90;;;;;;5032710;28;20026;-54
2022/11/02 04:55:53;;;;;;;14.93;4.10;;;11.00;99.90;;;;;;5035426;28;20612;-50
2022/11/02 04:58:40;;;;;;;6.75;4.05;;;11.00;99.90;;;;;;5031600;28;20406;-51
2022/11/02 05:01:28;;;;;;;10.77;3.83;;;11.10;99.90;;;;;;5031218;28;20056;-53
2022/11/02 05:04:13;;;;;;;11.05;3.90;;;11.10;99.90;;;;;;4998347;28;20065;-55
2022/11/02 05:06:59;;;;;;;5.72;3.03;;;11.10;99.90;;;;;;5019298;28;20171;-53
2022/11/02 05:09:45;;;;;;;8.45;3.63;;;11.10;99.90;;;;;;5031942;28;20029;-55
2022/11/02 05:12:31;;;;;;;9.15;3.78;;;11.10;99.90;;;;;;5031430;28;20048;-49
2022/11/02 05:15:17;;;;;;;11.60;3.80;;;11.10;99.90;;;;;;5031402;28;20029;-54
2022/11/02 05:18:03;;;;;;;9.10;3.67;;;11.10;99.90;;;;;;5030505;28;20087;-49
2022/11/02 05:20:54;;;;;;;13.60;4.45;;;11.30;99.90;;;;;;5031484;28;20034;-50
2022/11/02 05:23:40;;;;;;;12.25;4.20;;;11.10;99.90;;;;;;5031559;28;20140;-54
2022/11/02 05:26:26;;;;;;;13.38;4.00;;;11.10;99.90;;;;;;5031524;28;20026;-56
2022/11/02 05:29:12;;;;;;;6.68;3.33;;;11.00;99.90;;;;;;5031348;28;20056;-49
2022/11/02 05:31:58;;;;;;;10.85;3.97;;;11.00;99.90;;;;;;5016712;28;20025;-51
2022/11/02 05:34:44;;;;;;;9.27;3.15;;;10.90;99.90;;;;;;5031576;28;20512;-49
2022/11/02 05:37:30;;;;;;;10.07;3.45;;;11.00;99.90;;;;;;5016642;28;20037;-50
2022/11/02 05:40:16;;;;;;;8.77;3.60;;;11.00;99.90;;;;;;5017087;28;20065;-52
2022/11/02 05:43:03;;;;;;;9.98;3.35;;;11.00;99.90;;;;;;5031602;28;20406;-53
2022/11/02 05:46:00;;;;;;;9.85;3.35;;;11.00;99.90;;;;;;5031486;28;20028;-54
2022/11/02 05:48:46;;;;;;;9.57;3.78;;;11.00;99.90;;;;;;5031076;28;20022;-53
2022/11/02 05:51:32;;;;;;;9.43;3.65;;;11.00;99.90;;;;;;5031608;28;20033;-52
2022/11/02 05:54:18;;;;;;;11.43;3.33;;;11.10;99.90;;;;;;5031363;28;20029;-52
2022/11/02 05:57:04;;;;;;;22.45;4.65;;;11.10;99.90;;;;;;5030498;28;20510;-52
2022/11/02 05:59:50;;;;;;;13.05;3.80;;;11.20;99.90;;;;;;5031915;28;20057;-56
2022/11/02 06:02:36;;;;;;;10.13;3.83;;;11.20;99.90;;;;;;5015274;28;20030;-56
2022/11/02 06:05:22;;;;;;;12.13;3.85;;;11.20;99.90;;;;;;5016615;28;20037;-56
2022/11/02 06:08:08;;;;;;;13.27;4.18;;;11.20;99.90;;;;;;5036606;28;20060;-55
2022/11/02 06:10:54;;;;;;;11.05;3.75;;;11.20;99.90;;;;;;5030294;28;20036;-54
2022/11/02 06:13:41;;;;;;;8.57;4.25;;;11.20;99.90;;;;;;5030739;28;20183;-53
2022/11/02 06:16:27;;;;;;;12.32;3.97;;;11.20;99.90;;;;;;5030378;28;20482;-53
2022/11/02 06:19:13;;;;;;;9.93;3.38;;;11.30;99.90;;;;;;5015794;28;20030;-54
2022/11/02 06:21:59;;;;;;;13.88;3.80;;;11.20;99.90;;;;;;5029652;28;20065;-51
2022/11/02 06:24:45;;;;;;;12.40;4.00;;;11.20;99.90;;;;;;5029950;28;20057;-54
2022/11/02 06:27:31;;;;;;;14.45;4.40;;;11.30;99.90;;;;;;5029393;28;20033;-52
2022/11/02 06:30:17;;;;;;;18.25;5.80;;;11.30;99.90;;;;;;5029252;28;20036;-54
2022/11/02 06:33:03;;;;;;;15.95;6.70;;;11.30;99.90;;;;;;5030050;28;20092;-51
2022/11/02 06:35:51;;;;;;;15.13;5.47;;;11.40;99.90;;;;;;4997245;28;20117;-51
2022/11/02 06:38:37;;;;;;;11.13;4.40;;;11.30;99.90;;;;;;5014766;28;20070;-53
2022/11/02 06:41:23;;;;;;;10.73;4.55;;;11.40;99.90;;;;;;5030077;28;20045;-55
2022/11/02 06:44:09;;;;;;;13.48;4.07;;;11.40;99.90;;;;;;5029944;28;20091;-56
2022/11/02 06:46:55;;;;;;;10.35;4.18;;;11.40;99.90;;;;;;5028790;28;20076;-56
2022/11/02 06:49:41;;;;;;;12.90;3.83;;;11.50;99.90;;;;;;5030382;28;20036;-57
2022/11/02 06:52:28;;;;;;;13.93;4.22;;;11.50;99.90;;;;;;5010567;28;20034;-53
2022/11/02 06:55:14;;;;;;;10.10;4.07;;;11.50;99.90;;;;;;5013342;28;20030;-52
2022/11/02 06:58:00;;;;;;;12.82;4.82;;;11.60;99.90;;;;;;5029793;28;20039;-53
2022/11/02 07:00:46;;;;;;;12.65;4.93;;;11.60;99.90;;;;;;5029337;28;20533;-52
2022/11/02 07:03:32;;;;;;;7.85;4.05;;;11.80;99.90;;;;;;5029368;28;20030;-53
2022/11/02 07:06:18;;;;;;;13.23;5.65;;;11.90;99.90;;;;;;5029267;28;20116;-51
2022/11/02 07:09:04;;;;;;;10.77;3.92;;;11.90;99.90;;;;;;5015070;28;20553;-53
2022/11/02 07:11:50;;;;;;;14.35;4.50;;;11.80;99.90;;;;;;5029432;28;20040;-53
2022/11/02 07:14:36;;;;;;;10.90;3.97;;;11.90;99.90;;;;;;5015197;28;20026;-56
2022/11/02 07:17:22;;;;;;;14.30;4.22;;;12.00;99.90;;;;;;5029230;28;20091;-56
2022/11/02 07:20:11;;;;;;;12.57;4.43;;;11.90;99.90;;;;;;5029982;28;20036;-53
2022/11/02 07:22:59;;;;;;;11.23;4.28;;;11.90;99.90;;;;;;5010860;28;20379;-51
2022/11/02 07:25:44;;;;;;;7.82;3.53;;;12.00;99.90;;;;;;5014830;28;20489;-53
2022/11/02 07:28:30;;;;;;;12.13;4.68;;;12.00;99.90;;;;;;5029412;28;20434;-57
2022/11/02 07:31:17;;;;;;;13.48;3.88;;;11.90;99.90;;;;;;5029329;28;20383;-61
2022/11/02 07:34:02;;;;;;;13.15;3.70;;;11.90;99.90;;;;;;5029096;28;20100;-59
2022/11/02 07:36:48;;;;;;;19.23;5.50;;;12.00;99.90;;;;;;5028522;28;20553;-61
2022/11/02 07:39:34;;;;;;;15.32;5.32;;;12.10;99.90;;;;;;5029422;28;20022;-61
2022/11/02 07:42:20;;;;;;;7.70;3.53;;;12.10;99.90;;;;;;5029342;28;20041;-52
2022/11/02 07:45:06;;;;;;;7.97;3.63;;;12.20;99.90;;;;;;5029538;28;20032;-49
2022/11/02 07:47:52;;;;;;;12.30;3.95;;;12.20;99.90;;;;;;5009692;28;20034;-57
2022/11/02 07:50:38;;;;;;;9.60;3.58;;;12.10;99.90;;;;;;5016142;28;20033;-56
2022/11/02 07:53:24;;;;;;;12.80;3.75;;;12.20;99.90;;;;;;5029032;28;20064;-57
2022/11/02 07:56:10;;;;;;;9.82;3.60;;;12.30;99.90;;;;;;5028809;28;20105;-53
2022/11/02 07:58:56;;;;;;;13.00;3.63;;;12.30;99.90;;;;;;5031168;28;20030;-58
2022/11/02 08:01:42;;;;;;;14.50;3.90;;;12.30;99.90;;;;;;5018869;28;20504;-57
2022/11/02 08:04:28;;;;;;;11.02;3.53;;;12.50;99.90;;;;;;5032876;28;20064;-59
2022/11/02 08:07:14;;;;;;;9.80;4.03;;;12.60;99.90;;;;;;5018688;28;20032;-54
2022/11/02 08:10:00;;;;;;;8.30;3.88;;;12.60;99.90;;;;;;5033674;28;20052;-55
2022/11/02 08:12:45;;;;;;;13.68;4.82;;;12.60;99.90;;;;;;5031201;28;20064;-56
2022/11/02 08:15:31;;;;;;;12.90;4.53;;;12.70;99.90;;;;;;5031504;28;20113;-54
2022/11/02 08:18:23;;;;;;;11.80;4.13;;;12.70;99.90;;;;;;5031946;28;20037;-55
2022/11/02 08:21:08;;;;;;;8.82;3.35;;;12.80;99.90;;;;;;5013304;28;20455;-53
2022/11/02 08:23:54;;;;;;;14.13;5.00;;;12.80;99.90;;;;;;5001203;28;20080;-59
2022/11/02 08:26:40;;;;;;;8.35;3.70;;;12.90;99.90;;;;;;5032757;28;20013;-60
2022/11/02 08:29:26;;;;;;;15.52;4.47;;;12.90;99.90;;;;;;5032363;28;20033;-56
2022/11/02 08:32:12;;;;;;;8.38;3.90;;;13.00;99.90;;;;;;5012693;28;20600;-57
2022/11/02 08:34:58;;;;;;;9.45;3.70;;;13.10;99.90;;;;;;5013364;28;20113;-58
2022/11/02 08:37:44;;;;;;;13.23;4.57;;;13.30;99.90;;;;;;4998696;28;20076;-56
2022/11/02 08:40:31;;;;;;;14.05;4.43;;;13.20;99.90;;;;;;5013047;28;20499;-57
2022/11/02 08:43:16;;;;;;;13.48;4.03;;;13.20;99.90;;;;;;5023645;28;20018;-53
2022/11/02 08:46:02;;;;;;;9.88;4.35;;;13.30;99.90;;;;;;5032295;28;20402;-54
2022/11/02 08:48:49;;;;;;;16.45;4.50;;;13.40;99.90;;;;;;5031588;28;20088;-54
2022/11/02 08:51:37;;;;;;;18.58;4.80;;;13.40;99.90;;;;;;5031530;28;20162;-54
2022/11/02 08:54:23;;;;;;;11.57;4.65;;;13.40;99.90;;;;;;5031739;28;20609;-57
2022/11/02 08:57:09;;;;;;;10.07;4.22;;;13.60;99.90;;;;;;5017082;28;20029;-53
2022/11/02 08:59:55;;;;;;;12.07;4.10;;;13.50;99.90;;;;;;5030993;28;20022;-56
2022/11/02 09:02:41;;;;;;;15.57;4.28;;;13.50;99.90;;;;;;5031084;28;20394;-54
2022/11/02 09:05:29;;;;;;;11.63;4.18;;;13.60;99.90;;;;;;5032054;28;20371;-62
2022/11/02 09:08:17;;;;;;;14.18;3.88;;;13.60;99.90;;;;;;5031037;28;20493;-51
2022/11/02 09:11:03;;;;;;;17.42;4.28;;;13.70;99.90;;;;;;5031719;28;20080;-55
2022/11/02 09:13:49;;;;;;;13.25;4.30;;;13.70;99.90;;;;;;5017074;28;20042;-55
2022/11/02 09:16:35;;;;;;;16.17;3.83;;;13.80;99.90;;;;;;5032214;28;20045;-59
2022/11/02 09:19:21;;;;;;;9.63;3.53;;;13.80;99.90;;;;;;5031951;28;20033;-54
2022/11/02 09:22:07;;;;;;;9.52;3.80;;;13.80;99.90;;;;;;5031224;28;20057;-56
2022/11/02 09:24:53;;;;;;;9.93;3.63;;;13.80;99.90;;;;;;5013893;28;20117;-51
2022/11/02 09:27:40;;;;;;;11.10;4.18;;;13.90;99.90;;;;;;5029123;28;20076;-56
2022/11/02 09:30:27;;;;;;;11.68;3.75;;;13.90;99.90;;;;;;5040816;28;20549;-55
2022/11/02 09:33:14;;;;;;;13.02;4.10;;;14.00;99.90;;;;;;5041349;28;20493;-52
2022/11/02 09:36:04;;;;;;;10.57;4.20;;;14.10;99.90;;;;;;5033365;28;20034;-57
2022/11/02 09:38:50;;;;;;;16.35;4.68;;;14.10;99.90;;;;;;5031775;28;20075;-57
2022/11/02 09:41:44;;;;;;;13.50;4.18;;;14.10;99.90;;;;;;5029542;28;20120;-60
2022/11/02 09:44:42;;;;;;;12.52;4.65;;;14.20;99.80;;;;;;5031117;28;20025;-50
2022/11/02 09:47:30;;;;;;;16.30;4.32;;;14.20;99.90;;;;;;5029811;28;20022;-56
2022/11/02 09:50:21;;;;;;;10.80;3.65;;;14.40;99.90;;;;;;5031447;28;20512;-57
2022/11/02 09:53:13;;;;;;;9.63;3.92;;;14.40;99.50;;;;;;5031328;28;20032;-53
2022/11/02 09:56:01;;;;;;;10.75;3.72;;;14.40;99.30;;;;;;5032092;28;20026;-55
2022/11/02 09:59:10;;;;;;;9.20;3.53;;;14.40;99.00;;;;;;5030406;28;20490;-59
2022/11/02 10:02:02;;;;;;;10.15;3.40;;;14.30;99.20;;;;;;5019669;28;20038;-58
2022/11/02 10:05:09;;;;;;;21.63;4.32;;;14.50;98.70;;;;;;5027267;28;20072;-54
2022/11/02 10:08:01;;;;;;;12.85;4.60;;;14.40;98.70;;;;;;5029932;28;20014;-56
2022/11/02 10:10:56;;;;;;;11.90;3.72;;;14.60;98.70;;;;;;5030189;28;20120;-55
2022/11/02 10:14:00;;;;;;;15.13;4.30;;;14.80;98.40;;;;;;5027045;28;20022;-56
2022/11/02 10:16:57;;;;;;;10.60;3.60;;;14.60;97.70;;;;;;5011922;28;20026;-57
2022/11/02 10:19:52;;;;;;;8.50;3.40;;;14.60;97.90;;;;;;5018506;28;20536;-58
2022/11/02 10:22:42;;;;;;;11.55;3.67;;;14.70;97.70;;;;;;5015143;28;20031;-55
2022/11/02 10:25:28;;;;;;;14.65;4.90;;;14.70;97.60;;;;;;5029554;28;20056;-53
2022/11/02 10:28:23;;;;;;;13.77;3.78;;;14.70;97.70;;;;;;5029386;28;20029;-55
2022/11/02 10:31:22;;;;;;;11.03;3.90;;;14.90;97.40;;;;;;5030637;28;20025;-52
2022/11/02 10:34:14;;;;;;;8.60;3.55;;;14.90;97.50;;;;;;5015970;28;20256;-54
2022/11/02 10:37:25;;;;;;;14.55;4.25;;;15.10;97.30;;;;;;5029015;28;20048;-55
2022/11/02 10:40:48;;;;;;;12.88;3.45;;;15.10;97.10;;;;;;5029446;28;20029;-53
2022/11/02 10:43:42;;;;;;;16.85;4.22;;;15.10;97.20;;;;;;5029922;28;20063;-55
2022/11/02 10:47:14;;;;;;;9.82;3.60;;;15.10;96.30;;;;;;5029554;28;20021;-53
2022/11/02 10:50:30;;;;;;;13.38;3.90;;;15.20;96.00;;;;;;5024534;28;20044;-60
2022/11/02 10:53:19;;;;;;;18.25;4.82;;;15.50;95.90;;;;;;5029721;28;20029;-59
2022/11/02 10:56:29;;;;;;;11.55;3.83;;;15.60;95.50;;;;;;5030157;28;20533;-53
2022/11/02 10:59:18;;;;;;;11.73;4.63;;;15.60;95.80;;;;;;5029768;28;20033;-55
2022/11/02 11:02:13;;;;;;;15.70;4.22;;;15.60;95.60;;;;;;5029580;28;20076;-63
2022/11/02 11:05:19;;;;;;;7.88;3.63;;;15.40;95.70;;;;;;5007133;28;20068;-59
2022/11/02 11:08:05;;;;;;;16.20;3.95;;;15.50;95.60;;;;;;5007690;28;20056;-60
2022/11/02 11:10:51;;;;;;;13.57;3.47;;;15.40;95.20;;;;;;5015859;28;20412;-57
2022/11/02 11:13:39;;;;;;;9.50;2.90;;;15.40;95.40;;;;;;5015664;28;20112;-56
2022/11/02 11:16:43;;;;;;;8.85;3.85;;;15.40;95.20;;;;;;5029988;28;20037;-58
2022/11/02 11:19:37;;;;;;;7.65;3.88;;;15.40;95.40;;;;;;5029903;28;20030;-56
2022/11/02 11:22:28;;;;;;;9.65;3.97;;;15.50;94.90;;;;;;5029075;28;20441;-57
2022/11/02 11:25:28;;;;;;;7.70;4.13;;;15.30;95.20;;;;;;5029139;28;20163;-55
2022/11/02 11:28:22;;;;;;;8.90;3.10;;;15.40;95.30;;;;;;5028768;28;20120;-58
2022/11/02 11:31:16;;;;;;;10.00;3.45;;;15.40;95.00;;;;;;5028553;28;20034;-58
2022/11/02 11:34:02;;;;;;;8.52;3.08;;;15.50;95.10;;;;;;5030690;28;20031;-55
2022/11/02 11:36:48;;;;;;;10.30;3.47;;;15.60;95.00;;;;;;5030906;28;20071;-57
2022/11/02 11:39:36;;;;;;;11.57;3.72;;;15.60;94.80;;;;;;4996092;28;20068;-57
2022/11/02 11:42:26;;;;;;;9.38;3.25;;;15.70;94.50;;;;;;5033105;28;20068;-59
2022/11/02 11:45:24;;;;;;;8.48;3.10;;;15.60;94.50;;;;;;5031703;28;20021;-54
2022/11/02 11:48:29;;;;;;;10.75;3.50;;;15.70;94.80;;;;;;5031394;28;20044;-54
2022/11/02 11:51:40;;;;;;;12.23;4.43;;;15.90;94.30;;;;;;5019248;28;20056;-56
2022/11/02 11:54:27;;;;;;;6.43;3.20;;;15.90;94.20;;;;;;5032617;28;20103;-58
2022/11/02 11:57:30;;;;;;;7.68;3.00;;;16.00;93.40;;;;;;5017723;28;20497;-57
2022/11/02 12:00:28;;;;;;;9.73;3.53;;;15.80;93.70;;;;;;5014109;28;20030;-56
2022/11/02 12:03:15;;;;;;;7.68;3.88;;;16.00;93.50;;;;;;5019901;28;20029;-57
2022/11/02 12:06:06;;;;;;;8.07;3.55;;;15.90;93.30;;;;;;5026692;28;20037;-53
2022/11/02 12:09:20;;;;;;;11.68;3.80;;;15.70;93.20;;;;;;5018071;28;20085;-56
2022/11/02 12:12:11;;;;;;;10.05;2.95;;;15.70;93.50;;;;;;5032562;28;20025;-57
2022/11/02 12:15:20;;;;;;;8.82;3.22;;;15.60;93.50;;;;;;5015953;28;20045;-59
2022/11/02 12:18:31;;;;;;;8.48;3.30;;;15.50;93.90;;;;;;4997730;28;20147;-54
2022/11/02 12:21:42;;;;;;;11.13;3.65;;;15.50;94.10;;;;;;5038606;28;20048;-53
2022/11/02 12:24:37;;;;;;;11.85;3.80;;;15.50;94.10;;;;;;5032441;28;20128;-58
2022/11/02 12:27:42;;;;;;;10.25;3.13;;;15.40;94.20;;;;;;5012699;28;20530;-56
2022/11/02 12:30:35;;;;;;;7.60;3.10;;;15.40;93.80;;;;;;5021004;28;20029;-58
2022/11/02 12:33:43;;;;;;;7.53;3.55;;;15.40;94.10;;;;;;5031740;28;20033;-58
2022/11/02 12:36:38;;;;;;;7.18;3.05;;;15.50;94.10;;;;;;5013634;28;20026;-56
2022/11/02 12:39:24;;;;;;;5.07;2.90;;;15.50;93.60;;;;;;5029710;28;20025;-54
2022/11/02 12:42:15;;;;;;;8.10;2.90;;;15.50;93.10;;;;;;5030200;28;20035;-54
2022/11/02 12:45:25;;;;;;;11.15;2.90;;;15.60;93.20;;;;;;5031655;28;20033;-57
2022/11/02 12:48:18;;;;;;;6.95;2.92;;;15.60;92.40;;;;;;5017402;28;20576;-59
2022/11/02 12:51:22;;;;;;;9.98;3.38;;;15.90;92.50;;;;;;5030065;28;20034;-55
2022/11/02 12:54:20;;;;;;;8.73;2.88;;;16.00;92.10;;;;;;5031324;28;20034;-58
2022/11/02 12:57:13;;;;;;;6.53;2.60;;;16.00;91.80;;;;;;5030208;28;20396;-54
2022/11/02 13:00:14;;;;;;;9.95;2.78;;;16.10;92.30;;;;;;5026956;28;20079;-55
2022/11/02 13:03:00;;;;;;;7.13;3.42;;;16.30;92.30;;;;;;5032654;28;20021;-54
2022/11/02 13:05:53;;;;;;;9.85;2.88;;;16.40;92.00;;;;;;5022140;28;20557;-52
2022/11/02 13:08:51;;;;;;;12.27;3.20;;;16.30;91.90;;;;;;5031197;28;20104;-58
2022/11/02 13:11:47;;;;;;;8.93;3.03;;;16.30;91.70;;;;;;5031991;28;20025;-56
2022/11/02 13:14:45;;;;;;;9.32;3.00;;;16.30;91.50;;;;;;5031606;28;20033;-58
2022/11/02 13:17:39;;;;;;;9.02;3.90;;;16.50;91.00;;;;;;5032591;28;20448;-55
2022/11/02 13:21:04;;;;;;;7.80;2.90;;;16.40;91.10;;;;;;5032076;28;20474;-57
2022/11/02 13:23:57;;;;;;;9.23;3.72;;;16.30;91.40;;;;;;4932611;29;20062;-54
2022/11/02 13:26:44;;;;;;;5.35;2.72;;;16.30;91.00;;;;;;4932886;29;20020;-57
2022/11/02 13:29:43;;;;;;;8.40;3.17;;;16.20;91.10;;;;;;5026562;28;20044;-58
2022/11/02 13:32:40;;;;;;;14.13;4.10;;;16.20;91.20;;;;;;5032390;28;20075;-58
2022/11/02 13:35:35;;;;;;;7.00;3.00;;;16.30;91.20;;;;;;5032890;28;20543;-59
2022/11/02 13:38:41;;;;;;;7.85;3.13;;;16.50;90.90;;;;;;5032264;28;20091;-60
2022/11/02 13:41:38;;;;;;;10.82;2.70;;;16.60;90.40;;;;;;5032192;28;20057;-58
2022/11/02 13:44:42;;;;;;;6.72;2.65;;;16.40;90.10;;;;;;5032522;28;20087;-53
2022/11/02 13:47:54;;;;;;;9.43;3.75;;;16.30;90.40;;;;;;5032184;28;20044;-57
2022/11/02 13:50:44;;;;;;;6.72;3.03;;;16.20;90.60;;;;;;5017744;28;20059;-55
2022/11/02 13:53:36;;;;;;;10.52;3.28;;;16.20;90.20;;;;;;5016292;28;20549;-58
2022/11/02 13:56:28;;;;;;;7.65;2.80;;;15.80;90.50;;;;;;5032070;28;20029;-57
2022/11/02 13:59:26;;;;;;;10.30;3.30;;;16.10;90.40;;;;;;5032284;28;20048;-56
2022/11/02 14:02:17;;;;;;;6.35;3.05;;;16.20;90.60;;;;;;5032144;28;20017;-56
2022/11/02 14:05:03;;;;;;;4.78;2.95;;;16.60;90.00;;;;;;5031296;28;20038;-56
2022/11/02 14:07:50;;;;;;;6.15;3.13;;;16.60;89.60;;;;;;5031296;28;20049;-57
2022/11/02 14:10:39;;;;;;;8.50;2.65;;;16.70;89.40;;;;;;5032231;28;20401;-58
2022/11/02 14:13:54;;;;;;;9.68;3.03;;;17.30;88.50;;;;;;5018582;28;20029;-56
2022/11/02 14:16:49;;;;;;;7.07;3.07;;;18.00;86.90;;;;;;5033625;28;20391;-59
2022/11/02 14:19:50;;;;;;;6.43;2.88;;;18.70;85.30;;;;;;5036015;28;20030;-52
2022/11/02 14:22:36;;;;;;;6.35;2.97;;;18.40;84.60;;;;;;5041250;28;20037;-58
2022/11/02 14:25:22;;;;;;;6.57;2.60;;;18.40;84.50;;;;;;5039759;28;20049;-57
2022/11/02 14:28:24;;;;;;;8.02;2.85;;;18.70;84.60;;;;;;5033021;28;20029;-57
2022/11/02 14:31:16;;;;;;;6.35;3.08;;;19.20;82.70;;;;;;5032031;28;20040;-58
2022/11/02 14:34:29;;;;;;;6.53;2.80;;;18.20;84.80;;;;;;5030231;28;20025;-55
2022/11/02 14:37:34;;;;;;;7.05;3.17;;;17.20;87.60;;;;;;5030776;28;20112;-58
2022/11/02 14:40:28;;;;;;;7.43;2.47;;;16.90;88.80;;;;;;5030384;28;20036;-58
2022/11/02 14:43:46;;;;;;;5.37;2.63;;;16.50;90.00;;;;;;5030868;28;20280;-58
2022/11/02 14:46:52;;;;;;;9.75;3.65;;;16.30;90.20;;;;;;5030830;28;20026;-55
2022/11/02 14:49:50;;;;;;;7.93;3.55;;;15.80;90.90;;;;;;5030636;28;20033;-55
2022/11/02 14:52:36;;;;;;;7.38;3.58;;;15.60;91.50;;;;;;5031077;28;20018;-57
2022/11/02 14:55:28;;;;;;;5.78;3.50;;;15.40;91.50;;;;;;5030947;28;20417;-56
2022/11/02 14:58:22;;;;;;;13.07;3.22;;;15.40;91.60;;;;;;5016356;28;20113;-52